Time;durP1;ratioP1;P1;durP2;ratioP2;P2;SDS_P1;SDS_P2;PMS_P1;PMS_P2;Temp;Humidity;BMP_temperature;BMP_pressure;BME280_temperature;BME280_humidity;BME280_pressure;Samples;Min_cycle;Max_cycle;Signal;HPM_P1;HPM_P2
2022/10/17 00:00:20;;;;;;;;;;;17.90;99.90;;;;;;4995424;28;20427;-84
2022/10/17 00:02:45;;;;;;;;;;;17.90;99.90;;;;;;5012606;28;19937;-84
2022/10/17 00:05:11;;;;;;;;;;;17.90;99.90;;;;;;5013301;28;19913;-84
2022/10/17 00:07:36;;;;;;;;;;;18.00;99.90;;;;;;5012032;28;20390;-84
2022/10/17 00:10:02;;;;;;;;;;;17.90;99.90;;;;;;5011266;28;19910;-84
2022/10/17 00:12:28;;;;;;;;;;;18.00;99.90;;;;;;5012701;28;20343;-84
2022/10/17 00:14:53;;;;;;;;;;;18.00;99.90;;;;;;5012580;28;19910;-84
2022/10/17 00:17:19;;;;;;;;;;;17.90;99.90;;;;;;5012606;28;19916;-84
2022/10/17 00:19:44;;;;;;;;;;;17.90;99.90;;;;;;5012453;28;20260;-84
2022/10/17 00:22:10;;;;;;;;;;;17.90;99.90;;;;;;5021067;28;19922;-84
2022/10/17 00:24:35;;;;;;;;;;;17.90;99.90;;;;;;5018800;28;19917;-85
2022/10/17 00:27:01;;;;;;;;;;;17.80;99.90;;;;;;5016979;28;19909;-85
2022/10/17 00:29:26;;;;;;;;;;;17.80;99.90;;;;;;5021496;28;19909;-84
2022/10/17 00:31:55;;;;;;;;;;;17.80;99.90;;;;;;5004658;28;19917;-84
2022/10/17 00:34:20;;;;;;;;;;;17.80;99.90;;;;;;5020697;28;19916;-85
2022/10/17 00:36:46;;;;;;;;;;;17.80;99.90;;;;;;5004278;28;20422;-84
2022/10/17 00:39:11;;;;;;;;;;;17.90;99.90;;;;;;5003725;28;19917;-84
2022/10/17 00:41:37;;;;;;;;;;;17.80;99.90;;;;;;5003110;28;20016;-84
2022/10/17 00:44:04;;;;;;;;;;;17.80;99.90;;;;;;5000303;28;19913;-85
2022/10/17 00:46:31;;;;;;;;;;;17.80;99.90;;;;;;5015559;28;19996;-85
2022/10/17 00:48:57;;;;;;;;;;;17.80;99.90;;;;;;5014180;28;20383;-85
2022/10/17 00:51:32;;;;;;;;;;;17.80;99.90;;;;;;5015452;28;19916;-85
2022/10/17 00:53:58;;;;;;;;;;;17.80;99.90;;;;;;5013730;28;19996;-84
2022/10/17 00:56:24;;;;;;;;;;;17.80;99.90;;;;;;5015139;28;20427;-85
2022/10/17 00:58:49;;;;;;;;;;;17.80;99.90;;;;;;4997412;28;19909;-85
2022/10/17 01:01:15;;;;;;;;;;;17.80;99.90;;;;;;5015021;28;19909;-85
2022/10/17 01:03:40;;;;;;;;;;;17.80;99.90;;;;;;5013427;28;19964;-85
2022/10/17 01:06:06;;;;;;;;;;;17.80;99.90;;;;;;5014513;28;19909;-84
2022/10/17 01:08:31;;;;;;;;;;;17.80;99.90;;;;;;5013866;28;20368;-84
2022/10/17 01:11:15;;;;;;;;;;;17.80;99.90;;;;;;5015223;28;19924;-85
2022/10/17 01:13:48;;;;;;;;;;;17.80;99.90;;;;;;5014647;28;19909;-85
2022/10/17 01:16:20;;;;;;;;;;;17.70;99.90;;;;;;5013560;28;19916;-85
2022/10/17 01:18:54;;;;;;;;;;;17.70;99.90;;;;;;4997057;28;20326;-85
2022/10/17 01:21:19;;;;;;;;;;;17.70;99.90;;;;;;5013432;28;19917;-84
2022/10/17 01:24:03;;;;;;;;;;;17.70;99.90;;;;;;5014801;28;19913;-83
2022/10/17 01:26:47;;;;;;;;;;;17.70;99.90;;;;;;5015728;28;19915;-83
2022/10/17 01:29:12;;;;;;;;;;;17.60;99.90;;;;;;5014985;28;19909;-84
2022/10/17 01:31:38;;;;;;;;;;;17.60;99.90;;;;;;4997150;28;19968;-86
2022/10/17 01:34:15;;;;;;;;;;;17.70;99.90;;;;;;4996719;28;19960;-86
2022/10/17 01:36:48;;;;;;;;;;;17.60;99.90;;;;;;4996798;28;19909;-86
2022/10/17 01:39:28;;;;;;;;;;;17.60;99.90;;;;;;5013956;28;19917;-86
2022/10/17 01:42:00;;;;;;;;;;;17.60;99.90;;;;;;5014188;28;20434;-86
2022/10/17 01:44:35;;;;;;;;;;;17.60;99.90;;;;;;5012771;28;19975;-85
2022/10/17 01:47:04;;;;;;;;;;;17.60;99.90;;;;;;5012899;28;19910;-85
2022/10/17 01:49:30;;;;;;;;;;;17.60;99.90;;;;;;5013016;28;19916;-85
2022/10/17 01:51:59;;;;;;;;;;;17.60;99.90;;;;;;5012807;28;20443;-84
2022/10/17 01:54:29;;;;;;;;;;;17.60;99.90;;;;;;5013325;28;20351;-83
2022/10/17 01:56:57;;;;;;;;;;;17.60;99.90;;;;;;5012972;28;19941;-83
2022/10/17 01:59:25;;;;;;;;;;;17.60;99.90;;;;;;5012671;28;20410;-86
2022/10/17 02:01:54;;;;;;;;;;;17.60;99.90;;;;;;5012615;28;19910;-86
2022/10/17 02:04:19;;;;;;;;;;;17.60;99.90;;;;;;5013537;28;20287;-86
2022/10/17 02:06:45;;;;;;;;;;;17.60;99.90;;;;;;5012396;28;19909;-86
2022/10/17 02:09:25;;;;;;;;;;;17.60;99.90;;;;;;5013726;28;20327;-85
2022/10/17 02:12:00;;;;;;;;;;;17.70;99.90;;;;;;4996400;28;20387;-84
2022/10/17 02:14:25;;;;;;;;;;;17.60;99.90;;;;;;4996041;28;19916;-84
2022/10/17 02:17:11;;;;;;;;;;;17.60;99.90;;;;;;4996087;28;20256;-85
2022/10/17 02:19:39;;;;;;;;;;;17.60;99.90;;;;;;4992394;28;19914;-86
2022/10/17 02:22:23;;;;;;;;;;;17.60;99.90;;;;;;5013466;28;20028;-85
2022/10/17 02:24:51;;;;;;;;;;;17.60;99.90;;;;;;5013236;28;19909;-85
2022/10/17 02:27:23;;;;;;;;;;;17.60;99.90;;;;;;5012230;28;20390;-85
2022/10/17 02:29:57;;;;;;;;;;;17.50;99.90;;;;;;4995770;28;19909;-85
2022/10/17 02:32:35;;;;;;;;;;;17.50;99.90;;;;;;5012372;28;19914;-85
2022/10/17 02:35:02;;;;;;;;;;;17.50;99.90;;;;;;4995687;28;19913;-84
2022/10/17 02:37:28;;;;;;;;;;;17.50;99.90;;;;;;5011969;28;19913;-84
2022/10/17 02:39:55;;;;;;;;;;;17.60;99.90;;;;;;5013338;28;19905;-85
2022/10/17 02:42:22;;;;;;;;;;;17.50;99.90;;;;;;5011763;28;19914;-85
2022/10/17 02:44:47;;;;;;;;;;;17.50;99.90;;;;;;5011706;28;19913;-84
2022/10/17 02:47:27;;;;;;;;;;;17.50;99.90;;;;;;5013189;28;20260;-85
2022/10/17 02:49:54;;;;;;;;;;;17.50;99.90;;;;;;5013316;28;19969;-85
2022/10/17 02:52:35;;;;;;;;;;;17.40;99.90;;;;;;5012479;28;19909;-86
2022/10/17 02:55:06;;;;;;;;;;;17.40;99.90;;;;;;4995315;28;19909;-86
2022/10/17 02:57:35;;;;;;;;;;;17.50;99.90;;;;;;5012988;28;19910;-86
2022/10/17 03:00:02;;;;;;;;;;;17.40;99.90;;;;;;5011836;28;19909;-86
2022/10/17 03:02:36;;;;;;;;;;;17.50;99.90;;;;;;5011912;28;19920;-85
2022/10/17 03:05:02;;;;;;;;;;;17.50;99.90;;;;;;5011614;28;19953;-85
2022/10/17 03:07:27;;;;;;;;;;;17.50;99.90;;;;;;5012948;28;20372;-86
2022/10/17 03:09:53;;;;;;;;;;;17.50;99.90;;;;;;5011683;28;19972;-86
2022/10/17 03:12:18;;;;;;;;;;;17.60;99.90;;;;;;4995453;28;19920;-84
2022/10/17 03:14:43;;;;;;;;;;;17.60;99.90;;;;;;5012113;28;20025;-84
2022/10/17 03:17:09;;;;;;;;;;;17.70;99.90;;;;;;5013450;28;19913;-84
2022/10/17 03:19:34;;;;;;;;;;;17.60;99.90;;;;;;4995455;28;19910;-84
2022/10/17 03:22:00;;;;;;;;;;;17.60;99.90;;;;;;4995411;28;19909;-84
2022/10/17 03:24:26;;;;;;;;;;;17.70;99.90;;;;;;4995730;28;20394;-84
2022/10/17 03:26:51;;;;;;;;;;;17.70;99.90;;;;;;5013059;28;19916;-86
2022/10/17 03:29:16;;;;;;;;;;;17.70;99.90;;;;;;5012561;28;19920;-86
2022/10/17 03:31:42;;;;;;;;;;;17.60;99.90;;;;;;4995209;28;19959;-85
2022/10/17 03:34:07;;;;;;;;;;;17.60;99.90;;;;;;5012393;28;19917;-84
2022/10/17 03:36:33;;;;;;;;;;;17.60;99.90;;;;;;5012529;28;20332;-85
2022/10/17 03:38:58;;;;;;;;;;;17.70;99.90;;;;;;4994780;28;19967;-85
2022/10/17 03:41:24;;;;;;;;;;;17.60;99.90;;;;;;5011607;28;20008;-84
2022/10/17 03:43:51;;;;;;;;;;;17.60;99.90;;;;;;4995986;28;19917;-83
2022/10/17 03:46:16;;;;;;;;;;;17.70;99.90;;;;;;5013553;28;19964;-83
2022/10/17 03:48:42;;;;;;;;;;;17.70;99.90;;;;;;4995650;28;19914;-83
2022/10/17 03:51:08;;;;;;;;;;;17.70;99.90;;;;;;5013050;28;19909;-84
2022/10/17 03:53:33;;;;;;;;;;;17.70;99.90;;;;;;5013053;28;19932;-84
2022/10/17 03:56:12;;;;;;;;;;;17.70;99.90;;;;;;4995407;28;20367;-83
2022/10/17 03:58:39;;;;;;;;;;;17.70;99.90;;;;;;4996170;28;19909;-83
2022/10/17 04:01:08;;;;;;;;;;;17.70;99.90;;;;;;4995855;28;19910;-83
2022/10/17 04:03:34;;;;;;;;;;;17.70;99.90;;;;;;5015497;28;19928;-84
2022/10/17 04:06:00;;;;;;;;;;;17.70;99.90;;;;;;5016858;28;19913;-85
2022/10/17 04:08:25;;;;;;;;;;;17.70;99.90;;;;;;5018137;28;19910;-83
2022/10/17 04:10:51;;;;;;;;;;;17.70;99.90;;;;;;5018402;28;19917;-83
2022/10/17 04:13:16;;;;;;;;;;;17.70;99.90;;;;;;5015822;28;19913;-83
2022/10/17 04:15:42;;;;;;;;;;;17.70;99.90;;;;;;5000323;28;19917;-84
2022/10/17 04:18:07;;;;;;;;;;;17.70;99.90;;;;;;4999657;28;19980;-83
2022/10/17 04:20:36;;;;;;;;;;;17.70;99.90;;;;;;5015871;28;20008;-83
2022/10/17 04:23:01;;;;;;;;;;;17.70;99.90;;;;;;5016049;28;19917;-83
2022/10/17 04:25:27;;;;;;;;;;;17.70;99.90;;;;;;5017590;28;19914;-83
2022/10/17 04:27:52;;;;;;;;;;;17.60;99.90;;;;;;5017091;28;20370;-85
2022/10/17 04:30:18;;;;;;;;;;;17.60;99.90;;;;;;5016720;28;20346;-83
2022/10/17 04:32:43;;;;;;;;;;;17.60;99.90;;;;;;5016421;28;19916;-83
2022/10/17 04:35:09;;;;;;;;;;;17.60;99.90;;;;;;5016235;28;19991;-83
2022/10/17 04:37:34;;;;;;;;;;;17.60;99.90;;;;;;5016102;28;19996;-85
2022/10/17 04:39:59;;;;;;;;;;;17.60;99.90;;;;;;5016711;28;19909;-84
2022/10/17 04:42:27;;;;;;;;;;;17.60;99.90;;;;;;5015550;28;19913;-84
2022/10/17 04:44:52;;;;;;;;;;;17.60;99.90;;;;;;5016317;28;19913;-84
2022/10/17 04:47:18;;;;;;;;;;;17.60;99.90;;;;;;5016739;28;19959;-84
2022/10/17 04:49:43;;;;;;;;;;;17.60;99.90;;;;;;5016963;28;19909;-84
2022/10/17 04:52:09;;;;;;;;;;;17.60;99.90;;;;;;5015488;28;19909;-83
2022/10/17 04:54:34;;;;;;;;;;;17.60;99.90;;;;;;5014259;28;20329;-84
2022/10/17 04:56:59;;;;;;;;;;;17.60;99.90;;;;;;5014072;28;19916;-86
2022/10/17 04:59:25;;;;;;;;;;;17.60;99.90;;;;;;5015139;28;19909;-86
2022/10/17 05:01:50;;;;;;;;;;;17.60;99.90;;;;;;5015057;28;19910;-85
2022/10/17 05:04:16;;;;;;;;;;;17.60;99.90;;;;;;5013771;28;19917;-84
2022/10/17 05:06:41;;;;;;;;;;;17.60;99.90;;;;;;5015455;28;20344;-84
2022/10/17 05:09:07;;;;;;;;;;;17.60;99.90;;;;;;5015013;28;19968;-83
2022/10/17 05:11:32;;;;;;;;;;;17.70;99.90;;;;;;5015200;28;19910;-84
2022/10/17 05:13:59;;;;;;;;;;;17.60;99.90;;;;;;5014486;28;19909;-85
2022/10/17 05:16:24;;;;;;;;;;;17.70;99.90;;;;;;5015140;28;19917;-83
2022/10/17 05:18:51;;;;;;;;;;;17.70;99.90;;;;;;5014889;28;19910;-83
2022/10/17 05:21:17;;;;;;;;;;;17.70;99.90;;;;;;4997244;28;19920;-87
2022/10/17 05:23:42;;;;;;;;;;;17.70;99.90;;;;;;5013149;28;19914;-84
2022/10/17 05:26:08;;;;;;;;;;;17.70;99.90;;;;;;5013451;28;19910;-86
2022/10/17 05:28:33;;;;;;;;;;;17.80;99.90;;;;;;5013363;28;19955;-87
2022/10/17 05:31:05;;;;;;;;;;;17.80;99.90;;;;;;5013512;28;20524;-85
2022/10/17 05:33:31;;;;;;;;;;;17.80;99.90;;;;;;5012975;28;19910;-85
2022/10/17 05:35:57;;;;;;;;;;;17.90;99.90;;;;;;5013357;28;19913;-85
2022/10/17 05:38:22;;;;;;;;;;;17.90;99.90;;;;;;5012980;28;19917;-85
2022/10/17 05:40:48;;;;;;;;;;;17.90;99.90;;;;;;5013248;28;19910;-84
2022/10/17 05:43:13;;;;;;;;;;;17.90;99.90;;;;;;5014501;28;19935;-84
2022/10/17 05:45:39;;;;;;;;;;;17.90;99.90;;;;;;5013177;28;20004;-85
2022/10/17 05:48:05;;;;;;;;;;;17.90;99.90;;;;;;4996615;28;20287;-85
2022/10/17 05:50:30;;;;;;;;;;;17.90;99.90;;;;;;5014507;28;19909;-85
2022/10/17 05:52:56;;;;;;;;;;;17.90;99.90;;;;;;5013757;28;19909;-86
2022/10/17 05:55:22;;;;;;;;;;;17.90;99.90;;;;;;5012931;28;19910;-85
2022/10/17 05:57:47;;;;;;;;;;;17.90;99.90;;;;;;5014202;28;19916;-86
2022/10/17 06:00:13;;;;;;;;;;;17.90;99.90;;;;;;5012893;28;19980;-86
2022/10/17 06:02:39;;;;;;;;;;;17.90;99.90;;;;;;5012865;28;19921;-84
2022/10/17 06:05:04;;;;;;;;;;;17.90;99.90;;;;;;5012751;28;19932;-87
2022/10/17 06:07:30;;;;;;;;;;;17.90;99.90;;;;;;5013208;28;20046;-87
2022/10/17 06:09:57;;;;;;;;;;;17.90;99.90;;;;;;5012860;28;19910;-85
2022/10/17 06:12:23;;;;;;;;;;;17.90;99.90;;;;;;5013911;28;20375;-85
2022/10/17 06:14:48;;;;;;;;;;;17.90;99.90;;;;;;4996776;28;19959;-85
2022/10/17 06:17:14;;;;;;;;;;;17.90;99.90;;;;;;5014068;28;19956;-84
2022/10/17 06:19:40;;;;;;;;;;;17.90;99.90;;;;;;5013715;28;20363;-85
2022/10/17 06:22:06;;;;;;;;;;;18.00;99.90;;;;;;5012496;28;19910;-84
2022/10/17 06:24:31;;;;;;;;;;;18.00;99.90;;;;;;5012608;28;19932;-83
2022/10/17 06:26:57;;;;;;;;;;;18.00;99.90;;;;;;5012760;28;19936;-85
2022/10/17 06:29:22;;;;;;;;;;;18.10;99.90;;;;;;4996149;28;20002;-84
2022/10/17 06:31:48;;;;;;;;;;;18.10;99.90;;;;;;5013705;28;19913;-84
2022/10/17 06:34:13;;;;;;;;;;;18.20;99.90;;;;;;5013631;28;19916;-85
2022/10/17 06:36:39;;;;;;;;;;;18.30;99.90;;;;;;5013623;28;19909;-87
2022/10/17 06:39:04;;;;;;;;;;;18.30;99.90;;;;;;4995848;28;19968;-83
2022/10/17 06:41:30;;;;;;;;;;;18.40;99.90;;;;;;4995964;28;20359;-87
2022/10/17 06:43:55;;;;;;;;;;;18.40;99.90;;;;;;4995775;28;20283;-85
2022/10/17 06:46:21;;;;;;;;;;;18.40;99.90;;;;;;5013297;28;19948;-85
2022/10/17 06:48:46;;;;;;;;;;;18.40;99.90;;;;;;5012079;28;20364;-85
2022/10/17 06:51:12;;;;;;;;;;;18.40;99.90;;;;;;5011960;28;19916;-86
2022/10/17 06:53:38;;;;;;;;;;;18.40;99.90;;;;;;5012876;28;20394;-85
2022/10/17 06:56:05;;;;;;;;;;;18.50;99.90;;;;;;5011788;28;20315;-84
2022/10/17 06:58:32;;;;;;;;;;;18.60;99.90;;;;;;5012742;28;19909;-85
2022/10/17 07:01:02;;;;;;;;;;;18.70;99.90;;;;;;5012065;28;19910;-84
2022/10/17 07:03:28;;;;;;;;;;;18.70;99.90;;;;;;5012855;28;19920;-85
2022/10/17 07:05:54;;;;;;;;;;;18.90;99.90;;;;;;5011912;28;19910;-87
2022/10/17 07:08:20;;;;;;;;;;;18.90;99.90;;;;;;5011625;28;20290;-85
2022/10/17 07:10:45;;;;;;;;;;;19.00;99.90;;;;;;5011556;28;20344;-83
2022/10/17 07:13:11;;;;;;;;;;;19.00;99.90;;;;;;5021231;28;19913;-84
2022/10/17 07:15:37;;;;;;;;;;;19.00;99.90;;;;;;5031625;28;19913;-85
2022/10/17 07:18:02;;;;;;;;;;;19.10;99.90;;;;;;5032376;28;19944;-84
2022/10/17 07:20:28;;;;;;;;;;;19.20;99.90;;;;;;5014809;28;19916;-83
2022/10/17 07:22:53;;;;;;;;;;;19.30;99.90;;;;;;5005953;28;19914;-83
2022/10/17 07:25:19;;;;;;;;;;;19.40;99.90;;;;;;5013053;28;19992;-83
2022/10/17 07:27:44;;;;;;;;;;;19.40;99.90;;;;;;4995469;28;19917;-85
2022/10/17 07:30:10;;;;;;;;;;;19.50;99.90;;;;;;5013761;28;19984;-84
2022/10/17 07:32:36;;;;;;;;;;;19.50;99.90;;;;;;5012642;28;19917;-82
2022/10/17 07:35:01;;;;;;;;;;;19.60;99.90;;;;;;4995668;28;20286;-85
2022/10/17 07:37:27;;;;;;;;;;;19.60;99.90;;;;;;4996154;28;19910;-85
2022/10/17 07:39:53;;;;;;;;;;;19.70;99.90;;;;;;4998877;28;19989;-84
2022/10/17 07:42:18;;;;;;;;;;;19.80;99.90;;;;;;4998881;28;20000;-84
2022/10/17 07:44:46;;;;;;;;;;;19.90;99.90;;;;;;4998653;28;20264;-85
2022/10/17 07:47:11;;;;;;;;;;;20.00;99.90;;;;;;5016398;28;19909;-83
2022/10/17 07:49:41;;;;;;;;;;;20.00;99.90;;;;;;5015984;28;19909;-82
2022/10/17 07:52:10;;;;;;;;;;;20.00;99.90;;;;;;5016457;28;19913;-82
2022/10/17 07:54:36;;;;;;;;;;;20.10;99.90;;;;;;5016350;28;19914;-82
2022/10/17 07:57:01;;;;;;;;;;;20.20;99.90;;;;;;4999068;28;19964;-83
2022/10/17 07:59:27;;;;;;;;;;;20.20;99.90;;;;;;5016433;28;19992;-83
2022/10/17 08:01:55;;;;;;;;;;;20.30;99.90;;;;;;5016197;28;19909;-82
2022/10/17 08:04:21;;;;;;;;;;;20.30;99.90;;;;;;4998522;28;19917;-82
2022/10/17 08:06:46;;;;;;;;;;;20.40;99.90;;;;;;5016168;28;19919;-84
2022/10/17 08:09:12;;;;;;;;;;;20.40;99.90;;;;;;5016742;28;19936;-85
2022/10/17 08:11:37;;;;;;;;;;;20.40;99.90;;;;;;5017110;28;19917;-83
2022/10/17 08:14:03;;;;;;;;;;;20.50;99.90;;;;;;5016404;28;20295;-82
2022/10/17 08:16:28;;;;;;;;;;;20.60;99.90;;;;;;4998821;28;19917;-83
2022/10/17 08:18:54;;;;;;;;;;;20.70;99.90;;;;;;5020530;28;19913;-87
2022/10/17 08:21:19;;;;;;;;;;;20.70;99.90;;;;;;5017778;28;20416;-85
2022/10/17 08:23:45;;;;;;;;;;;20.70;99.90;;;;;;5017201;28;19919;-84
2022/10/17 08:26:12;;;;;;;;;;;20.80;99.90;;;;;;5017628;28;20392;-84
2022/10/17 08:28:38;;;;;;;;;;;20.90;99.90;;;;;;5035406;28;19959;-84
2022/10/17 08:31:05;;;;;;;;;;;21.00;99.90;;;;;;5016441;28;20020;-84
2022/10/17 08:33:32;;;;;;;;;;;21.00;99.90;;;;;;5017355;28;19910;-85
2022/10/17 08:35:58;;;;;;;;;;;21.10;99.90;;;;;;5035152;28;19928;-83
2022/10/17 08:38:23;;;;;;;;;;;21.20;99.90;;;;;;5034021;28;20004;-83
2022/10/17 08:40:49;;;;;;;;;;;21.20;99.90;;;;;;5030812;28;20449;-84
2022/10/17 08:43:27;;;;;;;;;;;21.20;99.90;;;;;;5034660;28;19940;-86
2022/10/17 08:45:59;;;;;;;;;;;21.30;99.90;;;;;;5034947;28;20388;-83
2022/10/17 08:48:26;;;;;;;;;;;21.50;99.90;;;;;;5034494;28;19913;-83
2022/10/17 08:50:54;;;;;;;;;;;21.60;99.90;;;;;;5015993;28;20375;-83
2022/10/17 08:53:24;;;;;;;;;;;21.70;99.90;;;;;;5016784;28;19944;-83
2022/10/17 08:55:51;;;;;;;;;;;21.80;99.90;;;;;;5034698;28;19913;-85
2022/10/17 08:58:18;;;;;;;;;;;21.90;99.90;;;;;;5034725;28;19913;-85
2022/10/17 09:01:07;;;;;;;;;;;21.90;99.90;;;;;;5034704;28;20000;-84
2022/10/17 09:03:44;;;;;;;;;;;21.80;99.90;;;;;;4997997;28;19913;-85
2022/10/17 09:06:09;;;;;;;;;;;22.00;99.90;;;;;;5016763;28;19920;-85
2022/10/17 09:08:51;;;;;;;;;;;22.10;99.90;;;;;;5034530;28;20387;-84
2022/10/17 09:11:33;;;;;;;;;;;22.20;99.90;;;;;;5013122;28;19921;-83
2022/10/17 09:14:09;;;;;;;;;;;22.10;99.90;;;;;;5034235;28;20283;-84
2022/10/17 09:16:49;;;;;;;;;;;22.20;99.90;;;;;;5016621;28;20190;-84
2022/10/17 09:19:18;;;;;;;;;;;22.20;99.90;;;;;;5016574;28;19988;-84
2022/10/17 09:21:45;;;;;;;;;;;22.20;99.90;;;;;;5034204;28;19909;-83
2022/10/17 09:24:25;;;;;;;;;;;22.10;99.90;;;;;;5033888;28;19913;-82
2022/10/17 09:26:51;;;;;;;;;;;22.10;99.90;;;;;;5035679;28;19953;-84
2022/10/17 09:29:24;;;;;;;;;;;22.20;99.90;;;;;;5034286;28;19920;-84
2022/10/17 09:31:57;;;;;;;;;;;22.30;99.90;;;;;;5016323;28;19916;-84
2022/10/17 09:34:24;;;;;;;;;;;22.30;99.90;;;;;;5033895;28;19909;-84
2022/10/17 09:36:50;;;;;;;;;;;22.30;99.90;;;;;;5033932;28;19909;-84
2022/10/17 09:39:17;;;;;;;;;;;22.30;99.90;;;;;;5015600;28;19943;-84
2022/10/17 09:41:46;;;;;;;;;;;22.10;99.90;;;;;;5015953;28;19909;-84
2022/10/17 09:44:12;;;;;;;;;;;22.10;99.90;;;;;;5014554;28;19913;-82
2022/10/17 09:46:37;;;;;;;;;;;22.10;99.90;;;;;;5020831;28;19910;-83
2022/10/17 09:49:11;;;;;;;;;;;22.10;99.90;;;;;;5031007;28;19916;-83
2022/10/17 09:51:37;;;;;;;;;;;22.10;99.90;;;;;;5027847;28;19913;-84
2022/10/17 09:54:06;;;;;;;;;;;22.10;99.90;;;;;;5014554;28;19955;-84
2022/10/17 09:56:51;;;;;;;;;;;22.00;99.90;;;;;;5033667;28;19909;-85
2022/10/17 09:59:28;;;;;;;;;;;22.00;99.90;;;;;;5016166;28;19913;-84
2022/10/17 10:02:06;;;;;;;;;;;21.90;99.90;;;;;;5016016;28;20448;-85
2022/10/17 10:04:32;;;;;;;;;;;21.90;99.90;;;;;;5033971;28;19932;-84
2022/10/17 10:07:03;;;;;;;;;;;21.90;99.90;;;;;;5033504;28;20370;-86
2022/10/17 10:09:31;;;;;;;;;;;22.00;99.90;;;;;;4999064;28;20147;-85
2022/10/17 10:11:57;;;;;;;;;;;22.10;99.90;;;;;;5033387;28;19933;-85
2022/10/17 10:14:27;;;;;;;;;;;22.10;99.90;;;;;;5015741;28;20016;-85
2022/10/17 10:16:53;;;;;;;;;;;22.20;99.90;;;;;;5015990;28;19909;-85
2022/10/17 10:19:20;;;;;;;;;;;22.30;99.90;;;;;;5033853;28;19943;-86
2022/10/17 10:21:59;;;;;;;;;;;22.30;99.90;;;;;;5033115;28;19948;-85
2022/10/17 10:24:25;;;;;;;;;;;22.40;99.90;;;;;;5015241;28;19917;-86
2022/10/17 10:26:53;;;;;;;;;;;22.40;99.90;;;;;;5015132;28;19915;-85
2022/10/17 10:29:21;;;;;;;;;;;22.30;99.90;;;;;;5015291;28;20333;-88
2022/10/17 10:31:47;;;;;;;;;;;22.20;99.90;;;;;;5015503;28;19917;-86
2022/10/17 10:34:20;;;;;;;;;;;22.20;99.90;;;;;;5015080;28;19909;-85
2022/10/17 10:36:48;;;;;;;;;;;22.10;99.90;;;;;;5015604;28;19917;-85
2022/10/17 10:39:34;;;;;;;;;;;22.10;99.90;;;;;;5016305;28;19917;-83
2022/10/17 10:42:01;;;;;;;;;;;22.10;99.90;;;;;;5004541;28;19941;-83
2022/10/17 10:44:28;;;;;;;;;;;22.10;99.90;;;;;;5017268;28;19921;-83
2022/10/17 10:47:12;;;;;;;;;;;22.20;99.90;;;;;;5034128;28;20267;-83
2022/10/17 10:49:38;;;;;;;;;;;22.30;99.90;;;;;;5015166;28;19909;-83
2022/10/17 10:52:04;;;;;;;;;;;22.30;99.90;;;;;;5035185;28;19923;-83
2022/10/17 10:54:35;;;;;;;;;;;22.30;99.90;;;;;;5035602;28;19919;-83
2022/10/17 10:57:03;;;;;;;;;;;22.30;99.90;;;;;;5036082;28;20318;-83
2022/10/17 10:59:28;;;;;;;;;;;22.40;99.90;;;;;;5035732;28;19909;-84
2022/10/17 11:01:57;;;;;;;;;;;22.40;99.90;;;;;;5017128;28;19979;-84
2022/10/17 11:04:41;;;;;;;;;;;22.50;99.90;;;;;;5016559;28;20276;-83
2022/10/17 11:10:33;;;;;;;;;;;22.50;99.90;;;;;;4972284;28;19961;-83
2022/10/17 11:13:03;;;;;;;;;;;22.50;99.90;;;;;;4971235;28;19910;-83
2022/10/17 11:15:35;;;;;;;;;;;22.50;99.90;;;;;;5012059;28;19909;-83
2022/10/17 11:18:27;;;;;;;;;;;22.50;99.90;;;;;;5020032;28;19916;-83
2022/10/17 11:20:57;;;;;;;;;;;22.50;99.90;;;;;;5022319;28;19944;-83
2022/10/17 11:23:26;;;;;;;;;;;22.60;99.90;;;;;;5024589;28;19920;-83
2022/10/17 11:25:53;;;;;;;;;;;22.60;99.90;;;;;;5025274;28;19931;-83
2022/10/17 11:28:20;;;;;;;;;;;22.60;99.90;;;;;;5041284;28;19936;-84
2022/10/17 11:31:00;;;;;;;;;;;22.60;99.90;;;;;;5024820;28;19932;-83
2022/10/17 11:33:29;;;;;;;;;;;22.60;99.90;;;;;;5024091;28;19916;-84
2022/10/17 11:35:58;;;;;;;;;;;22.70;99.90;;;;;;5040837;28;19909;-84
2022/10/17 11:38:29;;;;;;;;;;;22.70;99.90;;;;;;5039745;28;19979;-84
2022/10/17 11:40:57;;;;;;;;;;;22.80;99.90;;;;;;5040801;28;19945;-84
2022/10/17 11:43:29;;;;;;;;;;;22.80;99.90;;;;;;5021703;28;19966;-83
2022/10/17 11:45:57;;;;;;;;;;;22.80;99.90;;;;;;5025801;28;19913;-83
2022/10/17 11:48:25;;;;;;;;;;;22.80;99.90;;;;;;5023219;28;19910;-83
2022/10/17 11:50:53;;;;;;;;;;;22.80;99.90;;;;;;5039342;28;20379;-83
2022/10/17 11:53:23;;;;;;;;;;;22.80;99.90;;;;;;5041866;28;19916;-83
2022/10/17 11:55:49;;;;;;;;;;;22.90;99.90;;;;;;5040769;28;19978;-83
2022/10/17 11:58:18;;;;;;;;;;;23.00;99.90;;;;;;5040083;28;19916;-83
2022/10/17 12:00:49;;;;;;;;;;;23.00;99.90;;;;;;5023436;28;19916;-83
2022/10/17 12:03:22;;;;;;;;;;;22.90;99.90;;;;;;5019050;28;19917;-85
2022/10/17 12:05:58;;;;;;;;;;;23.00;99.90;;;;;;5032978;28;19913;-84
2022/10/17 12:08:28;;;;;;;;;;;22.90;99.90;;;;;;5019364;28;19916;-84
2022/10/17 12:11:03;;;;;;;;;;;22.90;99.90;;;;;;5021262;28;19909;-83
2022/10/17 12:13:32;;;;;;;;;;;22.90;99.90;;;;;;5018585;28;20047;-83
2022/10/17 12:16:20;;;;;;;;;;;22.80;99.90;;;;;;5017662;28;20290;-83
2022/10/17 12:19:09;;;;;;;;;;;22.90;99.90;;;;;;5036161;28;19948;-83
2022/10/17 12:21:52;;;;;;;;;;;22.80;99.90;;;;;;5006800;28;19924;-85
2022/10/17 12:24:39;;;;;;;;;;;22.80;99.90;;;;;;5017391;28;19937;-84
2022/10/17 12:27:21;;;;;;;;;;;22.80;99.90;;;;;;5036108;28;19916;-85
2022/10/17 12:29:47;;;;;;;;;;;22.70;99.90;;;;;;5018328;28;19952;-85
2022/10/17 12:32:13;;;;;;;;;;;22.70;99.90;;;;;;5037606;28;19909;-83
2022/10/17 12:34:39;;;;;;;;;;;22.70;99.90;;;;;;5019254;28;19915;-82
2022/10/17 12:37:08;;;;;;;;;;;22.60;99.90;;;;;;5035882;28;19945;-82
2022/10/17 12:39:34;;;;;;;;;;;22.60;99.90;;;;;;5035850;28;19923;-82
2022/10/17 12:41:59;;;;;;;;;;;22.60;99.90;;;;;;5036319;28;20422;-82
2022/10/17 12:44:25;;;;;;;;;;;22.60;99.90;;;;;;5036892;28;20318;-82
2022/10/17 12:46:54;;;;;;;;;;;22.50;99.90;;;;;;5037389;28;19916;-81
2022/10/17 12:49:38;;;;;;;;;;;22.50;99.90;;;;;;5025662;28;19975;-82
2022/10/17 12:52:05;;;;;;;;;;;22.40;99.90;;;;;;5037212;28;19917;-82
2022/10/17 12:54:36;;;;;;;;;;;22.40;99.90;;;;;;5035066;28;19915;-82
2022/10/17 12:57:12;;;;;;;;;;;22.40;99.90;;;;;;5036442;28;20287;-82
2022/10/17 12:59:42;;;;;;;;;;;22.40;99.90;;;;;;5035367;28;19924;-82
2022/10/17 13:02:11;;;;;;;;;;;22.40;99.90;;;;;;5041666;28;19931;-83
2022/10/17 13:04:36;;;;;;;;;;;22.40;99.90;;;;;;5041949;28;19968;-82
2022/10/17 13:07:02;;;;;;;;;;;22.40;99.90;;;;;;5022541;28;19955;-82
2022/10/17 13:09:29;;;;;;;;;;;22.40;99.90;;;;;;5040254;28;19945;-82
2022/10/17 13:11:56;;;;;;;;;;;22.50;99.90;;;;;;5037013;28;20425;-82
2022/10/17 13:14:23;;;;;;;;;;;22.50;99.90;;;;;;5019101;28;19909;-82
2022/10/17 13:17:09;;;;;;;;;;;22.60;99.90;;;;;;5018523;28;19910;-83
2022/10/17 13:19:44;;;;;;;;;;;22.60;99.90;;;;;;5007424;28;19909;-82
2022/10/17 13:22:20;;;;;;;;;;;22.70;99.90;;;;;;5039041;28;19909;-83
2022/10/17 13:24:46;;;;;;;;;;;22.70;99.90;;;;;;5036906;28;19917;-82
2022/10/17 13:27:26;;;;;;;;;;;22.80;99.90;;;;;;5018632;28;19909;-82
2022/10/17 13:29:52;;;;;;;;;;;22.80;99.90;;;;;;5034224;28;20394;-82
2022/10/17 13:32:17;;;;;;;;;;;22.70;99.90;;;;;;5024364;28;19913;-82
2022/10/17 13:34:43;;;;;;;;;;;22.70;99.90;;;;;;5030978;28;19963;-83
2022/10/17 13:37:13;;;;;;;;;;;22.70;99.90;;;;;;5035381;28;19913;-82
2022/10/17 13:39:42;;;;;;;;;;;22.70;99.90;;;;;;5035431;28;19921;-82
2022/10/17 13:42:28;;;;;;;;;;;22.70;99.90;;;;;;5036821;28;20343;-82
2022/10/17 13:44:54;;;;;;;;;;;22.70;99.90;;;;;;5036831;28;20549;-82
2022/10/17 13:47:24;;;;;;;;;;;22.70;99.90;;;;;;5019576;28;19952;-82
2022/10/17 13:49:50;;;;;;;;;;;22.70;99.90;;;;;;5037849;28;19910;-82
2022/10/17 13:52:17;;;;;;;;;;;22.70;99.90;;;;;;5037495;28;20339;-82
2022/10/17 13:54:45;;;;;;;;;;;22.80;99.90;;;;;;5037995;28;19909;-82
2022/10/17 13:57:20;;;;;;;;;;;22.90;99.90;;;;;;5061069;22;19894;-80
2022/10/17 13:59:48;;;;;;;;;;;22.90;99.90;;;;;;5073429;28;19947;-79
2022/10/17 14:02:25;;;;;;;;;;;23.00;99.90;;;;;;5087629;28;19909;-80
2022/10/17 14:05:01;;;;;;;;;;;23.10;99.90;;;;;;5055622;28;19956;-79
2022/10/17 14:07:34;;;;;;;;;;;23.30;99.90;;;;;;5068701;28;20401;-79
2022/10/17 14:09:59;;;;;;;;;;;23.40;99.90;;;;;;5044484;28;19962;-83
2022/10/17 14:12:25;;;;;;;;;;;23.50;99.90;;;;;;5061136;28;19923;-81
2022/10/17 14:14:52;;;;;;;;;;;23.60;99.90;;;;;;5062517;28;19916;-80
2022/10/17 14:17:27;;;;;;;;;;;23.60;99.90;;;;;;5062710;28;20440;-84
2022/10/17 14:19:54;;;;;;;;;;;23.70;99.90;;;;;;5064747;28;19908;-82
2022/10/17 14:22:19;;;;;;;;;;;23.60;99.90;;;;;;5063374;28;19909;-83
2022/10/17 14:24:45;;;;;;;;;;;23.60;99.90;;;;;;5062636;28;19912;-84
2022/10/17 14:27:30;;;;;;;;;;;23.50;99.90;;;;;;5063754;28;19999;-83